Time;durP1;ratioP1;P1;durP2;ratioP2;P2;SDS_P1;SDS_P2;PMS_P1;PMS_P2;Temp;Humidity;BMP_temperature;BMP_pressure;BME280_temperature;BME280_humidity;BME280_pressure;Samples;Min_cycle;Max_cycle;Signal;HPM_P1;HPM_P2
2022/10/20 00:00:31;;;;;;;8.43;6.00;;;10.50;99.90;;;;;;4986198;28;20227;-79
2022/10/20 00:02:59;;;;;;;6.40;5.60;;;10.40;99.90;;;;;;5005200;28;20207;-79
2022/10/20 00:05:26;;;;;;;6.17;4.97;;;10.30;99.90;;;;;;4995162;28;20204;-79
2022/10/20 00:07:54;;;;;;;7.80;5.57;;;10.30;99.90;;;;;;4993719;28;20201;-79
2022/10/20 00:10:21;;;;;;;7.10;5.77;;;10.30;99.90;;;;;;5008461;28;20228;-79
2022/10/20 00:12:50;;;;;;;8.20;6.13;;;10.40;99.90;;;;;;4996026;28;20196;-79
2022/10/20 00:15:18;;;;;;;8.00;5.43;;;10.10;99.90;;;;;;4993029;28;20208;-79
2022/10/20 00:17:45;;;;;;;9.73;5.80;;;10.00;99.90;;;;;;4995089;28;20235;-79
2022/10/20 00:20:13;;;;;;;9.50;6.33;;;10.10;99.90;;;;;;4988956;28;20221;-79
2022/10/20 00:22:47;;;;;;;10.27;5.90;;;10.10;99.90;;;;;;4986588;28;20209;-79
2022/10/20 00:25:15;;;;;;;6.93;5.83;;;10.20;99.90;;;;;;5005260;28;20196;-79
2022/10/20 00:27:42;;;;;;;8.60;6.13;;;10.30;99.90;;;;;;4996726;28;20204;-79
2022/10/20 00:30:12;;;;;;;7.60;5.60;;;10.40;99.90;;;;;;4990924;28;20589;-79
2022/10/20 00:32:39;;;;;;;8.53;6.30;;;10.50;99.90;;;;;;4994112;28;20573;-79
2022/10/20 00:35:07;;;;;;;6.43;5.80;;;10.50;99.90;;;;;;4992129;28;20229;-79
2022/10/20 00:37:35;;;;;;;9.33;6.07;;;10.60;99.90;;;;;;4991630;28;20555;-79
2022/10/20 00:40:02;;;;;;;6.67;5.63;;;10.60;99.90;;;;;;4993591;28;20227;-79
2022/10/20 00:42:30;;;;;;;7.27;5.70;;;10.60;99.90;;;;;;4997036;28;20650;-79
2022/10/20 00:44:59;;;;;;;6.73;5.57;;;10.50;99.90;;;;;;4987905;28;20211;-79
2022/10/20 00:47:37;;;;;;;6.63;6.00;;;10.50;99.90;;;;;;4992091;28;20569;-79
2022/10/20 00:50:10;;;;;;;7.27;5.17;;;10.40;99.90;;;;;;4990465;28;20223;-79
2022/10/20 00:52:39;;;;;;;5.70;5.10;;;10.50;99.90;;;;;;4991532;28;20204;-79
2022/10/20 00:55:09;;;;;;;5.93;5.00;;;10.50;99.90;;;;;;4991231;28;20227;-79
2022/10/20 00:57:40;;;;;;;6.47;5.50;;;10.30;99.90;;;;;;4994651;28;20211;-79
2022/10/20 01:00:09;;;;;;;6.63;5.50;;;10.40;99.90;;;;;;4985351;28;20221;-79
2022/10/20 01:02:38;;;;;;;8.87;5.67;;;10.30;99.90;;;;;;4993049;28;20558;-79
2022/10/20 01:05:08;;;;;;;7.03;5.40;;;10.50;99.90;;;;;;4994376;28;20199;-78
2022/10/20 01:07:35;;;;;;;6.63;5.67;;;10.40;99.90;;;;;;4993097;28;20669;-79
2022/10/20 01:10:04;;;;;;;7.10;5.80;;;10.40;99.90;;;;;;4994341;28;20217;-79
2022/10/20 01:12:42;;;;;;;8.90;5.90;;;10.20;99.90;;;;;;4995404;28;20200;-79
2022/10/20 01:15:18;;;;;;;6.33;5.73;;;9.90;99.90;;;;;;4992585;28;20766;-79
2022/10/20 01:17:57;;;;;;;6.33;5.73;;;9.80;99.90;;;;;;5007364;28;20685;-79
2022/10/20 01:20:51;;;;;;;9.80;5.73;;;9.60;99.90;;;;;;4988646;28;20231;-79
2022/10/20 01:24:02;;;;;;;6.10;5.50;;;9.70;99.90;;;;;;4986851;28;20269;-79
2022/10/20 01:27:09;;;;;;;6.70;6.00;;;9.60;99.90;;;;;;4993050;28;20299;-79
2022/10/20 01:29:44;;;;;;;7.70;5.43;;;9.80;99.90;;;;;;4991478;28;20228;-79
2022/10/20 01:32:19;;;;;;;6.60;5.57;;;9.90;99.90;;;;;;4993938;28;20200;-79
2022/10/20 01:34:51;;;;;;;6.57;4.67;;;10.00;99.90;;;;;;4995316;28;20212;-79
2022/10/20 01:37:27;;;;;;;6.20;4.70;;;10.20;99.90;;;;;;4993390;28;20681;-79
2022/10/20 01:40:01;;;;;;;7.13;5.83;;;10.20;99.90;;;;;;4994012;28;20698;-79
2022/10/20 01:42:29;;;;;;;7.20;5.30;;;10.30;99.90;;;;;;4996856;28;20199;-79
2022/10/20 01:45:02;;;;;;;5.87;5.27;;;10.30;99.90;;;;;;4993399;28;20204;-78
2022/10/20 01:47:31;;;;;;;5.43;4.77;;;10.40;99.90;;;;;;5012372;28;20200;-79
2022/10/20 01:49:58;;;;;;;8.63;5.40;;;10.50;99.90;;;;;;4986333;28;20581;-79
2022/10/20 01:52:28;;;;;;;6.73;5.60;;;10.40;99.90;;;;;;4992286;28;20204;-78
2022/10/20 01:54:56;;;;;;;7.83;5.10;;;10.30;99.90;;;;;;4996738;28;20213;-79
2022/10/20 01:57:37;;;;;;;7.90;4.90;;;10.10;99.90;;;;;;4994360;28;20211;-79
2022/10/20 02:00:12;;;;;;;6.10;4.80;;;10.10;99.90;;;;;;4985501;28;20224;-79
2022/10/20 02:03:12;;;;;;;8.03;5.40;;;10.00;99.90;;;;;;4999576;28;20204;-79
2022/10/20 02:06:00;;;;;;;6.60;5.33;;;9.90;99.90;;;;;;4985371;28;20196;-79
2022/10/20 02:08:34;;;;;;;5.77;5.17;;;9.70;99.90;;;;;;4996912;28;20280;-79
2022/10/20 02:11:08;;;;;;;6.77;5.40;;;9.80;99.90;;;;;;5012465;28;20204;-79
2022/10/20 02:13:38;;;;;;;6.73;5.20;;;9.80;99.90;;;;;;5014179;28;20223;-79
2022/10/20 02:16:11;;;;;;;8.33;5.80;;;9.80;99.90;;;;;;4992648;28;20227;-79
2022/10/20 02:18:42;;;;;;;7.13;5.63;;;10.00;99.90;;;;;;4997366;28;20208;-79
2022/10/20 02:21:11;;;;;;;5.60;5.00;;;9.90;99.90;;;;;;4995206;28;20200;-79
2022/10/20 02:23:40;;;;;;;7.50;5.43;;;10.00;99.90;;;;;;5013400;28;20208;-79
2022/10/20 02:26:10;;;;;;;6.23;5.40;;;10.00;99.90;;;;;;4993662;28;20200;-78
2022/10/20 02:28:40;;;;;;;6.87;5.40;;;9.90;99.90;;;;;;4989831;28;20204;-79
2022/10/20 02:31:11;;;;;;;8.57;6.03;;;9.90;99.90;;;;;;4988686;28;20204;-78
2022/10/20 02:33:40;;;;;;;6.60;5.10;;;9.70;99.90;;;;;;4989516;28;20658;-79
2022/10/20 02:36:15;;;;;;;8.37;5.50;;;9.20;99.90;;;;;;4988201;28;20224;-79
2022/10/20 02:38:43;;;;;;;6.30;5.70;;;9.30;99.90;;;;;;5001109;28;20226;-79
2022/10/20 02:41:11;;;;;;;7.93;5.53;;;9.30;99.90;;;;;;4988724;28;20196;-80
2022/10/20 02:43:38;;;;;;;7.10;5.93;;;9.50;99.90;;;;;;4989989;28;20200;-79
2022/10/20 02:46:06;;;;;;;5.77;5.20;;;9.40;99.90;;;;;;4987287;28;20196;-79
2022/10/20 02:48:37;;;;;;;8.10;5.83;;;9.40;99.90;;;;;;4984211;28;20663;-80
2022/10/20 02:51:05;;;;;;;6.03;4.97;;;9.50;99.90;;;;;;4986791;28;20701;-79
2022/10/20 02:53:33;;;;;;;7.23;5.50;;;9.70;99.90;;;;;;4990090;28;20689;-83
2022/10/20 02:56:00;;;;;;;6.90;5.60;;;9.70;99.90;;;;;;4994009;28;20207;-79
2022/10/20 02:58:28;;;;;;;6.77;5.83;;;9.60;99.90;;;;;;5032035;23;20704;-82
2022/10/20 03:00:55;;;;;;;7.50;5.73;;;9.70;99.90;;;;;;5034578;28;20198;-82
2022/10/20 03:03:22;;;;;;;8.03;5.77;;;9.60;99.90;;;;;;5036156;28;20199;-82
2022/10/20 03:05:51;;;;;;;6.60;5.57;;;9.60;99.90;;;;;;5033654;28;20202;-83
2022/10/20 03:08:20;;;;;;;6.20;5.50;;;9.70;99.90;;;;;;5018307;28;20735;-83
2022/10/20 03:10:47;;;;;;;7.37;5.80;;;9.70;99.90;;;;;;5014938;28;20195;-82
2022/10/20 03:13:14;;;;;;;8.57;6.47;;;9.70;99.90;;;;;;5017069;28;20204;-83
2022/10/20 03:15:42;;;;;;;7.13;5.43;;;9.70;99.90;;;;;;5014129;28;20223;-82
2022/10/20 03:18:09;;;;;;;7.03;5.87;;;9.70;99.90;;;;;;5014625;28;20235;-83
2022/10/20 03:20:36;;;;;;;7.70;5.50;;;9.70;99.90;;;;;;5010454;28;20282;-83
2022/10/20 03:23:05;;;;;;;6.57;5.30;;;9.70;99.90;;;;;;5014976;28;20200;-83
2022/10/20 03:25:33;;;;;;;7.40;5.60;;;9.70;99.90;;;;;;5014390;28;20196;-83
2022/10/20 03:28:00;;;;;;;7.83;6.10;;;9.50;99.90;;;;;;5008506;28;20219;-83
2022/10/20 03:30:28;;;;;;;8.33;6.10;;;9.60;99.90;;;;;;5010245;28;20219;-83
2022/10/20 03:32:56;;;;;;;6.73;6.00;;;9.60;99.90;;;;;;5014561;28;20565;-82
2022/10/20 03:35:23;;;;;;;7.23;6.00;;;9.50;99.90;;;;;;5014613;28;20584;-83
2022/10/20 03:37:51;;;;;;;7.73;6.57;;;9.50;99.90;;;;;;5027337;28;20232;-82
2022/10/20 03:40:20;;;;;;;7.17;6.47;;;9.40;99.90;;;;;;5012807;28;20202;-83
2022/10/20 03:42:48;;;;;;;8.83;6.37;;;9.40;99.90;;;;;;5029958;28;20211;-83
2022/10/20 03:45:16;;;;;;;8.10;6.23;;;9.40;99.90;;;;;;5016763;28;20211;-83
2022/10/20 03:47:43;;;;;;;6.87;5.70;;;9.40;99.90;;;;;;5030582;28;20224;-83
2022/10/20 03:50:10;;;;;;;8.67;6.40;;;9.40;99.90;;;;;;5014194;28;20200;-83
2022/10/20 03:52:38;;;;;;;7.57;5.93;;;9.50;99.90;;;;;;5006881;28;20705;-83
2022/10/20 03:55:06;;;;;;;7.37;5.77;;;9.50;99.90;;;;;;5009597;28;20199;-83
2022/10/20 03:57:35;;;;;;;7.33;5.87;;;9.50;99.90;;;;;;5013988;28;20592;-83
2022/10/20 04:00:03;;;;;;;10.00;6.43;;;9.40;99.90;;;;;;5010923;28;20200;-83
2022/10/20 04:02:41;;;;;;;7.50;6.03;;;9.50;99.90;;;;;;5014830;28;20214;-83
2022/10/20 04:05:11;;;;;;;7.93;6.43;;;9.40;99.90;;;;;;5012657;28;20589;-83
2022/10/20 04:07:38;;;;;;;7.37;6.10;;;9.50;99.90;;;;;;5010857;28;20216;-82
2022/10/20 04:10:07;;;;;;;6.93;5.57;;;9.50;99.90;;;;;;5013277;28;20204;-82
2022/10/20 04:12:35;;;;;;;8.87;6.73;;;9.50;99.90;;;;;;5014163;28;20210;-82
2022/10/20 04:15:03;;;;;;;7.50;6.60;;;9.30;99.90;;;;;;5014052;28;20765;-82
2022/10/20 04:17:31;;;;;;;9.03;5.90;;;9.30;99.90;;;;;;5012158;28;20235;-82
2022/10/20 04:19:58;;;;;;;11.83;6.53;;;9.30;99.90;;;;;;5013066;28;20191;-82
2022/10/20 04:22:26;;;;;;;8.47;6.13;;;9.30;99.90;;;;;;5010439;28;20211;-83
2022/10/20 04:24:53;;;;;;;7.17;6.00;;;9.30;99.90;;;;;;5016772;28;20203;-82
2022/10/20 04:27:21;;;;;;;10.83;6.60;;;9.30;99.90;;;;;;5011846;28;20227;-82
2022/10/20 04:29:53;;;;;;;7.37;6.33;;;9.30;99.90;;;;;;5023681;28;20200;-82
2022/10/20 04:32:20;;;;;;;9.83;5.87;;;9.20;99.90;;;;;;5011736;28;20200;-82
2022/10/20 04:34:48;;;;;;;7.27;6.30;;;9.30;99.90;;;;;;5030220;28;20560;-82
2022/10/20 04:37:15;;;;;;;10.30;7.10;;;9.30;99.90;;;;;;5010813;28;20212;-83
2022/10/20 04:39:43;;;;;;;7.30;6.23;;;9.30;99.90;;;;;;5007226;28;20203;-83
2022/10/20 04:42:10;;;;;;;8.47;7.17;;;9.10;99.90;;;;;;5027405;28;20203;-83
2022/10/20 04:44:38;;;;;;;7.30;6.60;;;9.20;99.90;;;;;;5012027;28;20203;-83
2022/10/20 04:47:06;;;;;;;7.60;6.83;;;9.20;99.90;;;;;;5015110;28;20210;-82
2022/10/20 04:49:34;;;;;;;8.63;6.77;;;9.30;99.90;;;;;;5023642;28;20204;-83
2022/10/20 04:52:01;;;;;;;9.10;6.67;;;9.40;99.90;;;;;;5026828;28;20212;-82
2022/10/20 04:54:29;;;;;;;8.60;7.03;;;9.40;99.90;;;;;;5015275;28;20568;-83
2022/10/20 04:56:57;;;;;;;10.00;6.90;;;9.40;99.90;;;;;;5014911;28;20223;-82
2022/10/20 04:59:24;;;;;;;8.67;7.53;;;9.10;99.90;;;;;;5012310;28;20219;-83
2022/10/20 05:01:52;;;;;;;10.23;6.77;;;9.10;99.90;;;;;;5012204;28;20200;-83
2022/10/20 05:04:20;;;;;;;8.67;6.60;;;9.20;99.90;;;;;;5015204;28;20210;-82
2022/10/20 05:06:48;;;;;;;8.53;7.27;;;9.40;99.90;;;;;;5010986;28;20210;-82
2022/10/20 05:09:16;;;;;;;9.83;7.47;;;9.30;99.90;;;;;;5012098;28;20224;-82
2022/10/20 05:11:44;;;;;;;9.00;7.13;;;9.40;99.90;;;;;;5009694;28;20188;-82
2022/10/20 05:14:12;;;;;;;8.13;7.20;;;9.40;99.90;;;;;;5014319;28;20203;-82
2022/10/20 05:16:39;;;;;;;7.83;6.83;;;9.30;99.90;;;;;;5017256;28;20678;-83
2022/10/20 05:19:07;;;;;;;10.47;7.27;;;9.30;99.90;;;;;;5014414;28;20220;-83
2022/10/20 05:21:35;;;;;;;8.77;7.63;;;9.30;99.90;;;;;;5012719;28;20211;-83
2022/10/20 05:24:05;;;;;;;8.00;6.90;;;9.40;99.90;;;;;;5005370;28;20188;-82
2022/10/20 05:26:36;;;;;;;10.70;7.70;;;9.40;99.90;;;;;;5012415;28;20262;-83
2022/10/20 05:29:06;;;;;;;8.97;6.83;;;9.40;99.90;;;;;;5013500;28;20223;-82
2022/10/20 05:31:37;;;;;;;9.97;7.73;;;9.40;99.90;;;;;;5010343;28;20192;-81
2022/10/20 05:34:04;;;;;;;11.83;7.57;;;9.40;99.90;;;;;;5014245;28;20211;-81
2022/10/20 05:36:32;;;;;;;10.80;7.93;;;9.40;99.90;;;;;;5010621;28;20705;-81
2022/10/20 05:39:01;;;;;;;7.90;7.10;;;9.30;99.90;;;;;;5022437;28;20219;-81
2022/10/20 05:41:30;;;;;;;8.30;7.10;;;9.20;99.90;;;;;;5005269;28;20211;-81
2022/10/20 05:44:00;;;;;;;8.57;7.37;;;9.30;99.90;;;;;;5011633;28;20661;-81
2022/10/20 05:46:29;;;;;;;8.70;7.80;;;9.40;99.90;;;;;;5010131;28;20707;-81
2022/10/20 05:48:59;;;;;;;11.30;7.63;;;9.50;99.90;;;;;;5008488;28;20222;-81
2022/10/20 05:51:31;;;;;;;10.87;7.70;;;9.40;99.90;;;;;;5008150;28;20212;-81
2022/10/20 05:54:01;;;;;;;9.90;7.30;;;9.30;99.90;;;;;;5024732;28;20275;-81
2022/10/20 05:56:30;;;;;;;8.77;7.80;;;9.30;99.90;;;;;;5006266;28;20700;-80
2022/10/20 05:58:58;;;;;;;11.57;7.60;;;9.30;99.90;;;;;;5005582;28;20224;-80
2022/10/20 06:01:37;;;;;;;10.77;7.27;;;9.40;99.90;;;;;;5007414;28;20216;-82
2022/10/20 06:04:07;;;;;;;9.93;6.40;;;9.50;99.90;;;;;;5007895;28;20204;-81
2022/10/20 06:06:35;;;;;;;10.90;8.30;;;9.50;99.90;;;;;;5006769;28;20538;-81
2022/10/20 06:09:06;;;;;;;11.10;8.30;;;9.50;99.90;;;;;;5009212;28;20584;-81
2022/10/20 06:11:34;;;;;;;8.23;7.37;;;9.40;99.90;;;;;;5006374;28;20201;-81
2022/10/20 06:14:02;;;;;;;9.10;7.00;;;9.30;99.90;;;;;;5009834;28;20208;-80
2022/10/20 06:16:31;;;;;;;9.07;8.13;;;9.30;99.90;;;;;;5010407;28;20215;-80
2022/10/20 06:18:59;;;;;;;9.00;7.93;;;9.20;99.90;;;;;;5008182;28;20231;-81
2022/10/20 06:21:28;;;;;;;9.80;7.90;;;9.30;99.90;;;;;;5003441;28;20195;-81
2022/10/20 06:23:57;;;;;;;8.87;7.53;;;9.30;99.90;;;;;;5007210;28;20207;-81
2022/10/20 06:26:31;;;;;;;9.17;7.40;;;9.40;99.90;;;;;;5004858;28;20572;-81
2022/10/20 06:28:59;;;;;;;10.93;8.53;;;9.50;99.90;;;;;;5007987;28;20228;-81
2022/10/20 06:31:29;;;;;;;12.03;8.13;;;9.50;99.90;;;;;;5010650;28;20597;-81
2022/10/20 06:33:57;;;;;;;13.77;8.40;;;9.50;99.90;;;;;;5014723;28;20266;-81
2022/10/20 06:36:26;;;;;;;12.47;7.40;;;9.50;99.90;;;;;;5015793;28;20203;-81
2022/10/20 06:38:54;;;;;;;15.50;8.70;;;9.60;99.90;;;;;;5027529;28;20215;-81
2022/10/20 06:41:22;;;;;;;10.77;8.33;;;9.60;99.90;;;;;;5009743;28;20199;-81
2022/10/20 06:43:56;;;;;;;10.50;8.40;;;9.60;99.90;;;;;;5011486;28;20199;-81
2022/10/20 06:46:27;;;;;;;11.63;8.60;;;9.70;99.90;;;;;;5009595;28;20199;-81
2022/10/20 06:48:55;;;;;;;11.30;8.10;;;9.80;99.90;;;;;;5029256;28;20230;-81
2022/10/20 06:51:22;;;;;;;8.63;7.70;;;9.80;99.90;;;;;;5008544;28;20219;-81
2022/10/20 06:53:50;;;;;;;8.90;7.77;;;9.80;99.90;;;;;;5010676;28;20199;-81
2022/10/20 06:56:19;;;;;;;11.53;8.20;;;9.90;99.90;;;;;;5009158;28;20211;-81
2022/10/20 06:58:49;;;;;;;10.33;7.63;;;9.90;99.90;;;;;;5010995;28;20227;-81
2022/10/20 07:01:19;;;;;;;11.07;8.03;;;9.90;99.90;;;;;;5023957;28;20204;-81
2022/10/20 07:03:48;;;;;;;10.70;8.20;;;9.90;99.90;;;;;;5006413;28;20204;-81
2022/10/20 07:06:17;;;;;;;9.20;7.93;;;9.90;99.90;;;;;;5011252;28;20203;-81
2022/10/20 07:08:49;;;;;;;9.03;8.07;;;10.00;99.90;;;;;;5010092;28;20227;-81
2022/10/20 07:11:19;;;;;;;9.17;7.73;;;10.00;99.90;;;;;;5012605;28;20200;-81
2022/10/20 07:13:48;;;;;;;9.20;7.70;;;10.10;99.90;;;;;;5019089;28;20199;-81
2022/10/20 07:16:22;;;;;;;8.63;7.60;;;10.10;99.90;;;;;;5018980;28;20208;-81
2022/10/20 07:18:51;;;;;;;12.33;8.13;;;10.10;99.90;;;;;;5014141;28;20215;-81
2022/10/20 07:21:25;;;;;;;11.37;7.70;;;10.20;99.90;;;;;;5028589;28;20204;-81
2022/10/20 07:24:04;;;;;;;9.70;8.27;;;10.30;99.90;;;;;;5023447;28;20211;-80
2022/10/20 07:26:34;;;;;;;11.03;8.00;;;10.40;99.90;;;;;;5009307;28;20206;-81
2022/10/20 07:29:02;;;;;;;11.73;7.87;;;10.30;99.90;;;;;;5012289;28;20207;-80
2022/10/20 07:32:21;;;;;;;9.63;8.53;;;10.40;99.90;;;;;;5010414;28;20216;-81
2022/10/20 07:35:17;;;;;;;10.70;8.13;;;10.20;99.90;;;;;;5012876;28;20203;-81
2022/10/20 07:38:12;;;;;;;12.33;8.60;;;10.20;99.90;;;;;;5013105;28;20220;-80
2022/10/20 07:41:09;;;;;;;10.10;8.27;;;10.00;99.90;;;;;;5016488;28;20275;-81
2022/10/20 07:44:37;;;;;;;9.63;8.40;;;10.10;99.90;;;;;;5019695;28;20192;-81
2022/10/20 07:47:25;;;;;;;10.30;8.53;;;10.30;99.90;;;;;;5016648;28;20198;-81
2022/10/20 07:50:04;;;;;;;12.40;8.17;;;10.30;99.90;;;;;;5030278;28;20593;-81
2022/10/20 07:52:41;;;;;;;11.57;8.67;;;10.30;99.90;;;;;;5014353;28;20579;-81
2022/10/20 07:55:11;;;;;;;12.37;9.13;;;10.60;99.90;;;;;;5017362;28;20203;-81
2022/10/20 07:57:48;;;;;;;11.87;8.77;;;10.60;99.90;;;;;;5016645;28;20246;-81
2022/10/20 08:00:41;;;;;;;12.80;8.70;;;10.80;99.90;;;;;;5014453;28;20207;-81
2022/10/20 08:06:26;;;;;;;17.70;8.93;;;10.90;99.90;;;;;;4967772;28;20196;-81
2022/10/20 08:09:06;;;;;;;12.10;9.13;;;11.10;99.90;;;;;;5015663;28;20215;-81
2022/10/20 08:11:36;;;;;;;13.03;9.60;;;11.10;99.90;;;;;;5011085;28;20195;-81
2022/10/20 08:14:12;;;;;;;11.80;8.90;;;11.20;99.90;;;;;;5013970;28;20199;-81
2022/10/20 08:16:45;;;;;;;9.97;8.93;;;11.20;99.90;;;;;;5011547;28;20200;-80
2022/10/20 08:19:18;;;;;;;12.40;9.80;;;11.40;99.90;;;;;;5015278;28;20212;-80
2022/10/20 08:22:11;;;;;;;12.60;8.60;;;11.60;99.90;;;;;;5027048;28;20200;-81
2022/10/20 08:24:39;;;;;;;9.73;8.37;;;11.60;99.90;;;;;;5025243;28;20199;-80
2022/10/20 08:27:06;;;;;;;11.50;8.70;;;11.70;99.90;;;;;;5011869;28;20559;-80
2022/10/20 08:29:34;;;;;;;11.27;9.20;;;11.80;99.90;;;;;;5011936;28;20199;-79
2022/10/20 08:32:01;;;;;;;11.70;9.73;;;11.80;99.90;;;;;;5011699;28;20199;-80
2022/10/20 08:34:31;;;;;;;12.18;9.63;;;11.80;99.90;;;;;;5012869;28;20279;-80
2022/10/20 08:36:59;;;;;;;12.73;10.32;;;12.00;99.90;;;;;;5006752;28;20263;-80
2022/10/20 08:39:26;;;;;;;10.38;9.00;;;12.00;99.90;;;;;;5011317;28;20231;-80
2022/10/20 08:41:55;;;;;;;14.15;10.13;;;12.00;99.90;;;;;;5010127;28;20206;-80
2022/10/20 08:44:25;;;;;;;11.27;9.57;;;12.00;99.90;;;;;;5025767;28;20222;-78
2022/10/20 08:46:55;;;;;;;11.48;9.48;;;12.00;99.90;;;;;;5005329;28;20212;-78
2022/10/20 08:49:25;;;;;;;14.23;9.82;;;12.20;99.90;;;;;;5007520;28;20644;-78
2022/10/20 08:51:54;;;;;;;9.33;8.23;;;12.10;99.90;;;;;;5016695;28;20218;-78
2022/10/20 08:54:22;;;;;;;13.73;8.90;;;12.40;99.90;;;;;;5009396;28;20211;-78
2022/10/20 08:56:50;;;;;;;11.23;8.40;;;12.70;99.90;;;;;;5014363;28;20545;-78
2022/10/20 08:59:28;;;;;;;11.35;8.80;;;13.00;99.90;;;;;;5014806;28;20249;-78
2022/10/20 09:01:56;;;;;;;10.90;8.63;;;13.10;99.90;;;;;;5001791;28;20199;-78
2022/10/20 09:04:30;;;;;;;9.93;8.00;;;13.30;99.90;;;;;;5026077;28;20620;-78
2022/10/20 09:07:04;;;;;;;9.60;7.72;;;13.50;99.90;;;;;;5006410;28;20203;-78
2022/10/20 09:09:33;;;;;;;11.10;7.75;;;13.80;99.90;;;;;;5009889;28;20206;-80
2022/10/20 09:12:07;;;;;;;9.60;7.75;;;14.00;99.90;;;;;;5012402;28;20207;-80
2022/10/20 09:14:37;;;;;;;11.50;7.80;;;14.10;99.90;;;;;;5011880;28;20215;-81
2022/10/20 09:17:06;;;;;;;8.77;6.55;;;14.30;99.90;;;;;;5007570;28;20200;-80
2022/10/20 09:19:34;;;;;;;9.13;7.10;;;14.50;99.90;;;;;;5008379;28;20215;-81
2022/10/20 09:22:06;;;;;;;10.25;7.47;;;14.60;99.90;;;;;;5015833;28;20223;-79
2022/10/20 09:24:36;;;;;;;9.52;8.25;;;14.50;99.90;;;;;;5017722;28;20199;-78
2022/10/20 09:27:24;;;;;;;9.13;7.90;;;14.50;99.90;;;;;;5024968;28;20200;-78
2022/10/20 09:29:51;;;;;;;8.02;6.18;;;14.60;99.90;;;;;;5023759;28;20196;-78
2022/10/20 09:32:21;;;;;;;11.93;7.43;;;14.70;99.90;;;;;;5010017;28;20207;-78
2022/10/20 09:34:49;;;;;;;7.75;6.95;;;14.90;99.90;;;;;;5011590;28;20215;-80
2022/10/20 09:37:20;;;;;;;11.23;7.40;;;14.70;99.90;;;;;;5016908;28;20207;-81
2022/10/20 09:39:52;;;;;;;7.28;6.38;;;14.70;99.90;;;;;;5026637;28;20697;-81
2022/10/20 09:42:22;;;;;;;7.60;6.80;;;14.70;99.90;;;;;;5001312;28;20204;-81
2022/10/20 09:44:53;;;;;;;11.73;7.13;;;14.70;99.90;;;;;;5008625;28;20216;-80
2022/10/20 09:47:22;;;;;;;7.85;6.97;;;14.70;99.90;;;;;;5009640;28;20211;-81
2022/10/20 09:49:55;;;;;;;9.98;7.00;;;14.80;99.90;;;;;;5014745;28;20199;-80
2022/10/20 09:52:29;;;;;;;8.30;6.90;;;14.70;99.90;;;;;;5007185;28;20570;-80
2022/10/20 09:55:02;;;;;;;10.15;7.18;;;14.70;99.90;;;;;;5019028;28;20199;-80
2022/10/20 09:57:30;;;;;;;8.90;6.93;;;14.80;99.90;;;;;;5010949;28;20691;-80
2022/10/20 09:59:59;;;;;;;10.18;7.43;;;14.80;99.90;;;;;;5006013;28;20223;-80
2022/10/20 10:02:32;;;;;;;9.38;7.03;;;14.80;99.90;;;;;;5013205;28;20676;-80
2022/10/20 10:05:15;;;;;;;9.27;6.57;;;14.80;99.90;;;;;;5001213;28;20200;-80
2022/10/20 10:07:44;;;;;;;7.68;6.85;;;14.80;99.90;;;;;;5009314;28;20219;-80
2022/10/20 10:10:24;;;;;;;7.80;6.82;;;14.80;99.90;;;;;;5008904;28;20200;-80
2022/10/20 10:12:53;;;;;;;8.75;6.55;;;14.80;99.90;;;;;;5011755;28;20223;-80
2022/10/20 10:15:30;;;;;;;8.35;6.50;;;14.90;99.90;;;;;;5008908;28;20203;-79
2022/10/20 10:17:58;;;;;;;8.68;7.15;;;14.90;99.90;;;;;;5024517;28;20227;-80
2022/10/20 10:20:34;;;;;;;10.80;7.22;;;14.90;99.90;;;;;;5007772;28;20224;-79
2022/10/20 10:23:29;;;;;;;7.97;6.03;;;15.00;99.90;;;;;;5020907;28;20202;-80
2022/10/20 10:25:57;;;;;;;8.32;6.75;;;14.90;99.90;;;;;;5004132;28;20202;-80
2022/10/20 10:28:36;;;;;;;8.50;6.35;;;14.90;99.90;;;;;;5009285;28;20592;-80
2022/10/20 10:31:09;;;;;;;9.65;6.35;;;14.90;99.90;;;;;;5009296;28;20200;-80
2022/10/20 10:33:37;;;;;;;8.85;6.85;;;14.90;99.90;;;;;;5008591;28;20199;-80
2022/10/20 10:36:12;;;;;;;9.25;6.50;;;15.00;99.90;;;;;;5010931;28;20203;-80
2022/10/20 10:38:41;;;;;;;10.07;6.63;;;14.90;99.90;;;;;;5003236;28;20226;-79
2022/10/20 10:41:20;;;;;;;7.60;5.65;;;15.60;99.90;;;;;;5005253;28;20211;-80
2022/10/20 10:43:57;;;;;;;7.50;5.88;;;15.80;99.90;;;;;;5002774;28;20203;-79
2022/10/20 10:46:27;;;;;;;7.07;5.90;;;15.90;99.90;;;;;;5007505;28;20203;-79
2022/10/20 10:49:37;;;;;;;12.40;6.70;;;15.90;99.90;;;;;;5002733;28;20220;-79
2022/10/20 10:52:18;;;;;;;9.40;6.25;;;15.80;99.90;;;;;;4995047;28;20207;-80
2022/10/20 10:55:01;;;;;;;7.80;6.15;;;15.90;99.90;;;;;;5020896;28;20199;-80
2022/10/20 10:57:36;;;;;;;7.78;5.95;;;15.90;99.90;;;;;;5002498;28;20232;-79
2022/10/20 11:00:12;;;;;;;9.45;6.60;;;16.00;99.90;;;;;;5006418;28;20223;-80
2022/10/20 11:02:58;;;;;;;8.20;6.30;;;15.60;99.90;;;;;;5004050;28;20215;-80
2022/10/20 11:05:53;;;;;;;10.55;7.10;;;15.30;99.90;;;;;;5003568;28;20200;-80
2022/10/20 11:08:34;;;;;;;8.00;6.10;;;15.20;99.90;;;;;;4995497;28;20228;-79
2022/10/20 11:11:17;;;;;;;11.18;7.80;;;15.20;99.90;;;;;;5003130;28;20200;-80
2022/10/20 11:13:52;;;;;;;8.18;6.82;;;15.20;99.90;;;;;;5004170;28;20207;-80
2022/10/20 11:16:27;;;;;;;10.23;6.93;;;15.10;99.90;;;;;;5007756;28;20226;-80
2022/10/20 11:19:12;;;;;;;7.80;6.75;;;15.20;99.90;;;;;;5035363;28;20234;-80
2022/10/20 11:21:51;;;;;;;7.82;6.82;;;15.10;99.90;;;;;;5007816;28;20214;-80
2022/10/20 11:24:32;;;;;;;8.07;6.97;;;15.10;99.90;;;;;;5004945;28;20218;-80
2022/10/20 11:27:04;;;;;;;7.55;6.68;;;15.10;99.90;;;;;;5008526;28;20210;-80
2022/10/20 11:29:36;;;;;;;8.82;6.82;;;15.20;99.90;;;;;;5009185;28;20207;-80
2022/10/20 11:32:11;;;;;;;9.18;6.88;;;15.20;99.90;;;;;;5008751;28;20215;-80
2022/10/20 11:34:46;;;;;;;8.43;6.60;;;15.20;99.90;;;;;;5025088;28;20199;-80
2022/10/20 11:37:20;;;;;;;8.93;6.97;;;15.10;99.90;;;;;;5008088;28;20199;-79
2022/10/20 11:39:55;;;;;;;12.68;7.50;;;15.00;99.90;;;;;;5013849;28;21301;-79
2022/10/20 11:42:31;;;;;;;8.10;7.20;;;15.00;99.90;;;;;;5013647;28;20203;-79
2022/10/20 11:45:01;;;;;;;10.00;7.25;;;14.90;99.90;;;;;;5011536;28;20219;-79
2022/10/20 11:47:34;;;;;;;9.93;7.50;;;14.90;99.90;;;;;;5014138;28;20230;-79
2022/10/20 11:50:05;;;;;;;9.60;7.32;;;14.90;99.90;;;;;;5016755;28;20211;-79
2022/10/20 11:52:57;;;;;;;9.35;7.97;;;14.90;99.90;;;;;;5009484;28;20192;-79
2022/10/20 11:55:37;;;;;;;11.10;7.78;;;14.90;99.90;;;;;;5014123;28;20204;-79
2022/10/20 11:58:29;;;;;;;9.40;7.40;;;14.90;99.90;;;;;;5011896;28;20242;-79
2022/10/20 12:01:27;;;;;;;11.15;8.00;;;14.80;99.90;;;;;;5018454;28;20216;-79
2022/10/20 12:04:28;;;;;;;10.77;8.05;;;14.90;99.90;;;;;;5028789;28;20200;-80
2022/10/20 12:07:17;;;;;;;11.60;8.23;;;14.90;99.90;;;;;;5007233;28;20203;-79
2022/10/20 12:09:55;;;;;;;10.60;7.75;;;15.00;99.90;;;;;;4997496;28;20207;-79
2022/10/20 12:12:31;;;;;;;11.10;8.52;;;14.90;99.90;;;;;;5014274;28;20199;-80
2022/10/20 12:15:03;;;;;;;11.82;7.43;;;14.90;99.90;;;;;;5015409;28;20202;-79
2022/10/20 12:17:34;;;;;;;12.15;8.07;;;14.90;99.90;;;;;;5013267;28;20224;-79
2022/10/20 12:20:39;;;;;;;9.48;7.78;;;14.90;99.90;;;;;;5013933;28;20704;-79
2022/10/20 12:23:26;;;;;;;11.98;8.23;;;14.90;99.90;;;;;;5010583;28;20199;-80
2022/10/20 12:25:54;;;;;;;12.98;8.60;;;14.80;99.90;;;;;;5022311;28;20206;-80
2022/10/20 12:28:42;;;;;;;10.30;8.95;;;14.80;99.90;;;;;;5010432;28;20227;-79
2022/10/20 12:31:10;;;;;;;12.88;9.52;;;14.80;99.90;;;;;;5005761;28;20662;-79
2022/10/20 12:33:41;;;;;;;12.13;9.13;;;14.70;99.90;;;;;;5013675;28;20207;-80
2022/10/20 12:36:29;;;;;;;13.00;8.73;;;14.70;99.90;;;;;;5010355;28;20204;-79
2022/10/20 12:39:19;;;;;;;13.25;9.10;;;14.70;99.90;;;;;;5007155;28;20219;-79
2022/10/20 12:41:59;;;;;;;10.38;9.00;;;14.60;99.90;;;;;;5013444;28;20192;-80
2022/10/20 12:44:38;;;;;;;12.48;9.93;;;14.60;99.90;;;;;;5014668;28;20207;-79
2022/10/20 12:47:08;;;;;;;14.93;9.13;;;14.50;99.90;;;;;;5025613;28;20740;-79
2022/10/20 12:49:38;;;;;;;12.10;10.57;;;14.50;99.90;;;;;;5011329;28;20229;-79
2022/10/20 12:52:08;;;;;;;12.02;9.63;;;14.40;99.90;;;;;;5013157;28;20314;-79
2022/10/20 12:54:38;;;;;;;13.52;10.10;;;14.40;99.90;;;;;;5023271;28;20205;-79
2022/10/20 12:57:30;;;;;;;13.70;10.07;;;14.40;99.90;;;;;;5006578;28;20198;-79
2022/10/20 12:59:58;;;;;;;14.77;10.88;;;14.40;99.90;;;;;;5024261;28;20211;-79
2022/10/20 13:02:49;;;;;;;13.10;9.90;;;14.40;99.90;;;;;;5027450;28;20214;-79
2022/10/20 13:05:45;;;;;;;13.07;10.40;;;14.40;99.90;;;;;;5021805;28;20196;-79
2022/10/20 13:08:32;;;;;;;11.80;10.15;;;14.40;99.90;;;;;;5024755;28;20220;-79
2022/10/20 13:11:43;;;;;;;11.82;9.40;;;14.50;99.90;;;;;;5007024;28;20665;-79
2022/10/20 13:14:26;;;;;;;12.90;10.30;;;14.50;99.90;;;;;;5014105;28;20203;-79
2022/10/20 13:17:03;;;;;;;14.07;11.68;;;14.50;99.90;;;;;;5012765;28;20214;-79
2022/10/20 13:19:38;;;;;;;13.77;11.13;;;14.50;99.90;;;;;;5011499;28;20200;-79
2022/10/20 13:22:36;;;;;;;12.10;10.13;;;14.40;99.90;;;;;;5012738;28;20198;-79